createdAt,value
2017-10-20T00:00:40.965Z,998.9
2017-10-20T00:01:51.041Z,998.85
2017-10-20T00:03:01.461Z,998.92
2017-10-20T00:04:11.876Z,998.97
2017-10-20T00:05:21.287Z,998.94
2017-10-20T00:06:31.693Z,998.94
2017-10-20T00:07:41.814Z,998.98
2017-10-20T00:08:51.882Z,998.94
2017-10-20T00:10:01.954Z,998.93
2017-10-20T00:11:12.369Z,998.95
2017-10-20T00:12:22.796Z,998.9
2017-10-20T00:13:32.881Z,998.9
2017-10-20T00:14:43.289Z,998.89
2017-10-20T00:15:53.701Z,998.9
2017-10-20T00:17:04.104Z,998.91
2017-10-20T00:18:14.496Z,998.87
2017-10-20T00:19:24.925Z,998.89
2017-10-20T00:20:34.992Z,998.89
2017-10-20T00:21:45.392Z,998.89
2017-10-20T00:22:55.796Z,998.9
2017-10-20T00:24:06.237Z,998.9
2017-10-20T00:25:16.326Z,998.9
2017-10-20T00:26:26.122Z,998.93
2017-10-20T00:27:36.211Z,998.84
2017-10-20T00:28:46.606Z,998.94
2017-10-20T00:29:57.012Z,998.87
2017-10-20T00:31:07.419Z,998.86
2017-10-20T00:32:17.867Z,998.88
2017-10-20T00:33:28.258Z,998.89
2017-10-20T00:34:38.684Z,998.86
2017-10-20T00:35:49.091Z,998.88
2017-10-20T00:36:59.161Z,998.89
2017-10-20T00:38:09.555Z,998.86
2017-10-20T00:39:19.644Z,998.88
2017-10-20T00:40:30.053Z,998.87
2017-10-20T00:41:40.474Z,998.8
2017-10-20T00:42:50.892Z,998.8
2017-10-20T00:44:01.025Z,998.81
2017-10-20T00:45:11.089Z,998.77
2017-10-20T00:46:21.155Z,998.74
2017-10-20T00:47:31.567Z,998.77
2017-10-20T00:48:41.964Z,998.76
2017-10-20T00:49:52.422Z,998.75
2017-10-20T00:51:02.840Z,998.75
2017-10-20T00:52:13.257Z,998.8
2017-10-20T00:53:23.658Z,998.75
2017-10-20T00:54:34.056Z,998.79
2017-10-20T00:55:44.188Z,998.76
2017-10-20T00:56:54.587Z,998.74
2017-10-20T00:58:04.664Z,998.76
2017-10-20T00:59:14.758Z,998.74
2017-10-20T01:00:24.849Z,998.77
2017-10-20T01:01:34.946Z,998.74
2017-10-20T01:02:45.351Z,998.72
2017-10-20T01:03:55.787Z,998.73
2017-10-20T01:05:06.192Z,998.68
2017-10-20T01:06:16.581Z,998.71
2017-10-20T01:07:26.717Z,998.73
2017-10-20T01:08:37.126Z,998.69
2017-10-20T01:09:47.188Z,998.75
2017-10-20T01:10:57.269Z,998.78
2017-10-20T01:12:07.672Z,998.79
2017-10-20T01:13:17.790Z,998.79
2017-10-20T01:14:28.198Z,998.77
2017-10-20T01:15:38.605Z,998.74
2017-10-20T01:16:49.009Z,998.72
2017-10-20T01:17:58.757Z,998.71
2017-10-20T01:19:09.810Z,998.67
2017-10-20T01:20:20.228Z,998.66
2017-10-20T01:21:30.300Z,998.65
2017-10-20T01:22:40.387Z,998.68
2017-10-20T01:23:50.791Z,998.63
2017-10-20T01:25:01.200Z,998.62
2017-10-20T01:26:11.613Z,998.61
2017-10-20T01:27:22.011Z,998.64
2017-10-20T01:28:32.430Z,998.63
2017-10-20T01:29:42.864Z,998.63
2017-10-20T01:30:53.274Z,998.66
2017-10-20T01:32:03.361Z,998.63
2017-10-20T01:33:13.788Z,998.68
2017-10-20T01:34:23.861Z,998.69
2017-10-20T01:35:34.277Z,998.69
2017-10-20T01:36:44.350Z,998.67
2017-10-20T01:37:54.749Z,998.67
2017-10-20T01:39:04.841Z,998.64
2017-10-20T01:40:15.260Z,998.61
2017-10-20T01:41:25.346Z,998.59
2017-10-20T01:42:35.091Z,998.56
2017-10-20T01:43:45.495Z,998.58
2017-10-20T01:44:55.891Z,998.54
2017-10-20T01:46:05.977Z,998.55
2017-10-20T01:47:16.053Z,998.56
2017-10-20T01:48:26.190Z,998.55
2017-10-20T01:49:36.593Z,998.55
2017-10-20T01:50:46.680Z,998.53
2017-10-20T01:51:57.073Z,998.6
2017-10-20T01:53:07.143Z,998.6
2017-10-20T01:54:17.605Z,998.62
2017-10-20T01:55:28.059Z,998.64
2017-10-20T01:56:38.458Z,998.65
2017-10-20T01:57:48.520Z,998.64
2017-10-20T01:58:58.917Z,998.65
2017-10-20T02:00:09.323Z,998.63
2017-10-20T02:01:19.413Z,998.65
2017-10-20T02:02:29.464Z,998.67
2017-10-20T02:03:39.864Z,998.7
2017-10-20T02:04:50.269Z,998.66
2017-10-20T02:06:00.676Z,998.61
2017-10-20T02:07:11.087Z,998.65
2017-10-20T02:08:21.157Z,998.63
2017-10-20T02:09:31.554Z,998.61
2017-10-20T02:10:41.974Z,998.6
2017-10-20T02:11:52.143Z,998.65
2017-10-20T02:13:02.548Z,998.66
2017-10-20T02:14:12.949Z,998.67
2017-10-20T02:15:23.359Z,998.65
2017-10-20T02:16:33.782Z,998.65
2017-10-20T02:17:43.576Z,998.65
2017-10-20T02:18:53.982Z,998.68
2017-10-20T02:20:04.387Z,998.63
2017-10-20T02:21:14.460Z,998.66
2017-10-20T02:22:25.112Z,998.68
2017-10-20T02:23:35.569Z,998.67
2017-10-20T02:24:45.648Z,998.68
2017-10-20T02:25:56.054Z,998.69
2017-10-20T02:27:06.457Z,998.69
2017-10-20T02:28:16.868Z,998.68
2017-10-20T02:29:27.274Z,998.66
2017-10-20T02:30:37.690Z,998.64
2017-10-20T02:31:48.112Z,998.64
2017-10-20T02:32:58.185Z,998.62
2017-10-20T02:34:07.951Z,998.58
2017-10-20T02:35:18.359Z,998.59
2017-10-20T02:36:28.760Z,998.53
2017-10-20T02:37:38.832Z,998.52
2017-10-20T02:38:49.238Z,998.54
2017-10-20T02:39:59.662Z,998.52
2017-10-20T02:41:10.090Z,998.57
2017-10-20T02:42:20.493Z,998.57
2017-10-20T02:43:30.895Z,998.56
2017-10-20T02:44:40.976Z,998.56
2017-10-20T02:45:51.383Z,998.59
2017-10-20T02:47:01.463Z,998.58
2017-10-20T02:48:11.874Z,998.59
2017-10-20T02:49:22.276Z,998.59
2017-10-20T02:50:32.681Z,998.61
2017-10-20T02:51:42.749Z,998.66
2017-10-20T02:52:53.158Z,998.66
2017-10-20T02:54:03.572Z,998.63
2017-10-20T02:55:13.642Z,998.64
2017-10-20T02:56:24.050Z,998.65
2017-10-20T02:57:33.811Z,998.61
2017-10-20T02:58:44.278Z,998.65
2017-10-20T02:59:54.355Z,998.68
2017-10-20T03:01:04.766Z,998.69
2017-10-20T03:02:15.183Z,998.71
2017-10-20T03:33:55.067Z,998.64
2017-10-20T03:35:05.459Z,998.63
2017-10-20T03:36:15.857Z,998.64
2017-10-20T03:37:26.249Z,998.65
2017-10-20T03:38:36.313Z,998.65
2017-10-20T03:39:46.724Z,998.68
2017-10-20T03:40:56.811Z,998.68
2017-10-20T03:42:07.207Z,998.67
2017-10-20T03:43:17.605Z,998.66
2017-10-20T03:44:27.669Z,998.65
2017-10-20T03:45:38.122Z,998.64
2017-10-20T03:46:48.511Z,998.64
2017-10-20T03:47:58.591Z,998.65
2017-10-20T03:49:08.344Z,998.62
2017-10-20T03:50:18.761Z,998.62
2017-10-20T03:51:29.222Z,998.64
2017-10-20T03:52:39.636Z,998.63
2017-10-20T03:53:49.712Z,998.64
2017-10-20T03:55:00.124Z,998.62
2017-10-20T03:56:10.183Z,998.65
2017-10-20T03:57:20.590Z,998.66
2017-10-20T03:58:30.333Z,998.68
2017-10-20T03:59:40.422Z,998.63
2017-10-20T04:00:50.816Z,998.65
2017-10-20T04:02:00.898Z,998.67
2017-10-20T04:03:11.352Z,998.66
2017-10-20T04:04:21.756Z,998.69
2017-10-20T04:05:32.166Z,998.71
2017-10-20T04:06:42.566Z,998.73
2017-10-20T04:07:52.977Z,998.76
2017-10-20T04:09:03.428Z,998.72
2017-10-20T04:10:13.840Z,998.71
2017-10-20T04:11:24.231Z,998.73
2017-10-20T04:12:34.623Z,998.73
2017-10-20T04:13:45.025Z,998.71
2017-10-20T04:14:55.093Z,998.72
2017-10-20T04:16:05.500Z,998.71
2017-10-20T04:17:15.914Z,998.68
2017-10-20T04:18:26.309Z,998.73
2017-10-20T04:19:36.719Z,998.71
2017-10-20T04:20:47.171Z,998.7
2017-10-20T04:21:57.596Z,998.7
2017-10-20T04:23:08.025Z,998.7
2017-10-20T04:24:18.427Z,998.73
2017-10-20T04:25:28.169Z,998.75
2017-10-20T04:26:37.591Z,998.73
2017-10-20T04:27:48.020Z,998.75
2017-10-20T04:28:58.420Z,998.75
2017-10-20T04:30:08.186Z,998.72
2017-10-20T04:31:18.271Z,998.71
2017-10-20T04:32:28.346Z,998.73
2017-10-20T04:33:38.745Z,998.76
2017-10-20T04:34:49.167Z,998.75
2017-10-20T04:35:59.252Z,998.75
2017-10-20T04:37:09.667Z,998.73
2017-10-20T04:38:20.061Z,998.74
2017-10-20T04:39:30.453Z,998.73
2017-10-20T04:40:40.536Z,998.71
2017-10-20T04:41:50.933Z,998.75
2017-10-20T04:43:01.354Z,998.73
2017-10-20T04:44:11.756Z,998.74
2017-10-20T04:45:21.502Z,998.71
2017-10-20T04:46:31.901Z,998.69
2017-10-20T04:47:42.315Z,998.71
2017-10-20T04:48:52.704Z,998.72
2017-10-20T04:50:03.125Z,998.7
2017-10-20T04:51:13.541Z,998.68
2017-10-20T04:52:23.947Z,998.69
2017-10-20T04:53:34.341Z,998.67
2017-10-20T04:54:44.409Z,998.69
2017-10-20T04:55:54.884Z,998.68
2017-10-20T04:57:05.287Z,998.74
2017-10-20T04:58:15.692Z,998.7
2017-10-20T04:59:26.110Z,998.73
2017-10-20T05:00:36.518Z,998.73
2017-10-20T05:01:46.972Z,998.74
2017-10-20T05:02:57.375Z,998.76
2017-10-20T05:04:07.101Z,998.79
2017-10-20T05:05:17.519Z,998.79
2017-10-20T05:06:27.596Z,998.86
2017-10-20T05:07:38.015Z,998.88
2017-10-20T05:08:49.278Z,998.9
2017-10-20T05:09:59.693Z,998.88
2017-10-20T05:11:09.775Z,998.91
2017-10-20T05:12:20.194Z,998.94
2017-10-20T05:13:30.291Z,998.89
2017-10-20T05:14:40.693Z,998.95
2017-10-20T05:15:51.114Z,998.93
2017-10-20T05:17:01.536Z,998.95
2017-10-20T05:18:11.955Z,998.9
2017-10-20T05:19:22.020Z,998.9
2017-10-20T05:20:32.471Z,998.93
2017-10-20T05:21:42.874Z,998.93
2017-10-20T05:22:53.285Z,998.97
2017-10-20T05:24:03.400Z,998.95
2017-10-20T05:25:13.457Z,998.97
2017-10-20T05:26:23.873Z,998.99
2017-10-20T05:27:34.281Z,999.03
2017-10-20T05:28:44.355Z,999
2017-10-20T05:29:54.755Z,998.99
2017-10-20T05:31:05.156Z,999.01
2017-10-20T05:32:15.621Z,999.01
2017-10-20T05:33:25.712Z,999.04
2017-10-20T05:34:35.820Z,999.03
2017-10-20T05:35:46.239Z,999
2017-10-20T05:36:56.650Z,999.06
2017-10-20T05:38:06.752Z,999.05
2017-10-20T05:39:17.160Z,999.09
2017-10-20T05:40:27.569Z,999.09
2017-10-20T05:41:37.643Z,999.11
2017-10-20T05:42:48.045Z,999.11
2017-10-20T05:43:58.491Z,999.11
2017-10-20T05:45:08.574Z,999.12
2017-10-20T05:46:18.323Z,999.17
2017-10-20T05:47:28.730Z,999.18
2017-10-20T05:48:39.134Z,999.2
2017-10-20T05:49:49.537Z,999.17
2017-10-20T05:50:59.597Z,999.22
2017-10-20T05:52:09.668Z,999.25
2017-10-20T05:53:20.085Z,999.25
2017-10-20T05:54:30.486Z,999.28
2017-10-20T05:55:40.929Z,999.28
2017-10-20T05:56:51.365Z,999.25
2017-10-20T05:58:01.758Z,999.27
2017-10-20T05:59:11.819Z,999.27
2017-10-20T06:00:22.216Z,999.23
2017-10-20T06:01:32.694Z,999.29
2017-10-20T06:02:43.117Z,999.28
2017-10-20T06:03:53.540Z,999.34
2017-10-20T06:05:03.623Z,999.37
2017-10-20T06:06:13.701Z,999.34
2017-10-20T06:07:23.768Z,999.35
2017-10-20T06:08:34.159Z,999.34
2017-10-20T06:09:44.559Z,999.36
2017-10-20T06:10:54.946Z,999.42
2017-10-20T06:12:05.344Z,999.42
2017-10-20T06:13:15.799Z,999.45
2017-10-20T06:14:26.199Z,999.43
2017-10-20T06:15:36.601Z,999.45
2017-10-20T06:16:47.001Z,999.49
2017-10-20T06:17:57.073Z,999.48
2017-10-20T06:19:07.480Z,999.51
2017-10-20T06:20:17.882Z,999.55
2017-10-20T06:21:27.976Z,999.57
2017-10-20T06:22:38.377Z,999.59
2017-10-20T06:23:48.451Z,999.68
2017-10-20T06:24:58.855Z,999.7
2017-10-20T06:26:09.260Z,999.73
2017-10-20T06:27:19.660Z,999.71
2017-10-20T06:28:30.062Z,999.71
2017-10-20T06:29:40.456Z,999.71
2017-10-20T06:30:50.532Z,999.68
2017-10-20T06:32:00.941Z,999.68
2017-10-20T06:33:10.677Z,999.63
2017-10-20T06:34:21.077Z,999.7
2017-10-20T06:35:31.478Z,999.65
2017-10-20T06:36:41.275Z,999.69
2017-10-20T06:37:51.682Z,999.67
2017-10-20T06:39:02.093Z,999.67
2017-10-20T06:40:12.482Z,999.7
2017-10-20T06:41:22.590Z,999.71
2017-10-20T06:42:32.970Z,999.68
2017-10-20T06:43:43.383Z,999.68
2017-10-20T06:44:53.782Z,999.71
2017-10-20T06:46:04.199Z,999.69
2017-10-20T06:47:14.269Z,999.63
2017-10-20T06:48:24.690Z,999.63
2017-10-20T06:49:34.755Z,999.66
2017-10-20T06:50:44.845Z,999.65
2017-10-20T06:51:54.941Z,999.69
2017-10-20T06:53:05.039Z,999.71
2017-10-20T06:54:15.456Z,999.72
2017-10-20T06:55:25.859Z,999.74
2017-10-20T06:56:36.246Z,999.76
2017-10-20T06:57:46.641Z,999.79
2017-10-20T06:58:57.044Z,999.79
2017-10-20T07:00:07.496Z,999.81
2017-10-20T07:01:17.897Z,999.8
2017-10-20T07:02:27.970Z,999.84
2017-10-20T07:03:38.364Z,999.83
2017-10-20T07:04:48.782Z,999.83
2017-10-20T07:05:59.202Z,999.84
2017-10-20T07:07:09.283Z,999.83
2017-10-20T07:08:19.688Z,999.79
2017-10-20T07:09:30.079Z,999.73
2017-10-20T07:10:40.468Z,999.72
2017-10-20T07:11:50.923Z,999.73
2017-10-20T07:13:01.322Z,999.74
2017-10-20T07:14:11.732Z,999.81
2017-10-20T07:15:22.146Z,999.8
2017-10-20T07:16:32.541Z,999.87
2017-10-20T07:17:42.943Z,999.83
2017-10-20T07:18:53.352Z,999.86
2017-10-20T07:20:03.421Z,999.89
2017-10-20T07:21:13.175Z,999.94
2017-10-20T07:22:23.585Z,999.93
2017-10-20T07:23:34.000Z,999.9
2017-10-20T07:24:44.070Z,999.91
2017-10-20T07:25:54.134Z,999.87
2017-10-20T07:27:04.517Z,999.87
2017-10-20T07:28:14.914Z,999.95
2017-10-20T07:29:26.415Z,999.91
2017-10-20T07:30:36.826Z,999.89
2017-10-20T07:31:47.261Z,999.9
2017-10-20T07:32:57.673Z,999.94
2017-10-20T07:34:08.065Z,999.95
2017-10-20T07:35:18.471Z,999.94
2017-10-20T07:36:28.891Z,999.99
2017-10-20T07:37:38.969Z,1000
2017-10-20T07:38:49.369Z,999.99
2017-10-20T07:39:59.759Z,1000.02
2017-10-20T07:41:09.823Z,999.97
2017-10-20T07:42:20.250Z,1000
2017-10-20T07:43:30.320Z,1000
2017-10-20T07:44:40.734Z,999.94
2017-10-20T07:45:51.126Z,999.91
2017-10-20T07:47:00.918Z,999.88
2017-10-20T07:48:11.309Z,999.91
2017-10-20T07:49:21.407Z,999.85
2017-10-20T07:50:31.823Z,999.88
2017-10-20T07:51:41.565Z,999.87
2017-10-20T07:52:52.055Z,999.91
2017-10-20T07:54:02.452Z,999.87
2017-10-20T07:55:12.865Z,999.87
2017-10-20T07:56:22.945Z,999.84
2017-10-20T07:57:33.369Z,999.89
2017-10-20T07:58:43.789Z,999.86
2017-10-20T07:59:53.861Z,999.9
2017-10-20T08:01:03.942Z,999.89
2017-10-20T08:02:14.360Z,999.9
2017-10-20T08:03:24.758Z,999.83
2017-10-20T08:04:34.889Z,999.86
2017-10-20T08:05:44.971Z,999.87
2017-10-20T08:06:55.069Z,999.83
2017-10-20T08:08:05.464Z,999.85
2017-10-20T08:09:15.878Z,999.79
2017-10-20T08:10:26.282Z,999.87
2017-10-20T08:11:36.685Z,999.87
2017-10-20T08:12:46.745Z,999.84
2017-10-20T08:13:56.842Z,999.87
2017-10-20T08:15:07.224Z,999.86
2017-10-20T08:16:17.636Z,999.83
2017-10-20T08:17:27.717Z,999.85
2017-10-20T08:18:38.113Z,999.87
2017-10-20T08:19:48.521Z,999.88
2017-10-20T08:20:58.929Z,999.89
2017-10-20T08:22:09.374Z,999.92
2017-10-20T08:23:19.447Z,999.9
2017-10-20T08:24:29.848Z,999.9
2017-10-20T08:25:40.265Z,999.9
2017-10-20T08:26:50.346Z,999.89
2017-10-20T08:28:00.461Z,999.91
2017-10-20T08:29:10.549Z,999.94
2017-10-20T08:30:20.959Z,999.96
2017-10-20T08:31:31.037Z,1000
2017-10-20T08:32:41.111Z,1000
2017-10-20T08:33:51.515Z,999.99
2017-10-20T08:35:01.910Z,999.99
2017-10-20T08:36:12.026Z,1000.01
2017-10-20T08:37:22.094Z,999.98
2017-10-20T08:38:32.506Z,999.97
2017-10-20T08:39:42.581Z,999.99
2017-10-20T08:40:52.978Z,999.96
2017-10-20T08:42:03.128Z,999.93
2017-10-20T08:43:13.547Z,999.88
2017-10-20T08:44:23.958Z,999.91
2017-10-20T08:45:34.360Z,999.95
2017-10-20T08:46:44.766Z,999.93
2017-10-20T08:47:55.175Z,999.92
2017-10-20T08:49:05.578Z,999.94
2017-10-20T08:50:15.977Z,999.96
2017-10-20T08:51:26.384Z,999.97
2017-10-20T08:52:36.785Z,999.95
2017-10-20T08:53:47.193Z,999.95
2017-10-20T08:54:56.920Z,999.98
2017-10-20T08:56:07.317Z,999.97
2017-10-20T08:57:17.728Z,999.95
2017-10-20T08:58:27.792Z,1000.01
2017-10-20T08:59:38.201Z,1000.02
2017-10-20T09:00:48.283Z,1000.03
2017-10-20T09:01:58.692Z,1000.02
2017-10-20T09:03:08.776Z,1000.03
2017-10-20T09:04:19.223Z,1000.03
2017-10-20T09:05:29.721Z,1000.04
2017-10-20T09:06:39.512Z,1000.03
2017-10-20T09:07:49.667Z,1000.07
2017-10-20T09:09:00.095Z,1000.09
2017-10-20T09:10:10.628Z,1000.07
2017-10-20T09:11:21.119Z,1000.1
2017-10-20T09:12:30.979Z,1000.09
2017-10-20T09:13:41.446Z,1000.08
2017-10-20T09:14:51.867Z,1000.11
2017-10-20T09:16:01.946Z,1000.12
2017-10-20T09:17:12.360Z,1000.14
2017-10-20T09:18:22.804Z,1000.09
2017-10-20T09:19:32.872Z,1000.07
2017-10-20T09:20:42.956Z,1000.1
2017-10-20T09:21:53.352Z,1000.05
2017-10-20T09:23:03.757Z,1000.04
2017-10-20T09:24:14.158Z,1000.05
2017-10-20T09:25:24.236Z,1000.06
2017-10-20T09:26:34.615Z,1000.08
2017-10-20T09:27:45.014Z,1000.11
2017-10-20T09:28:55.155Z,1000.08
2017-10-20T09:30:05.553Z,1000.11
2017-10-20T09:31:15.629Z,1000.11
2017-10-20T09:32:25.362Z,1000.09
2017-10-20T09:33:35.440Z,1000.07
2017-10-20T09:34:45.529Z,1000.02
2017-10-20T09:35:55.759Z,1000.05
2017-10-20T09:37:06.189Z,1000.04
2017-10-20T09:38:16.274Z,1000.05
2017-10-20T09:39:26.348Z,1000.01
2017-10-20T09:40:36.810Z,999.99
2017-10-20T09:41:47.202Z,999.99
2017-10-20T09:42:57.627Z,1000
2017-10-20T09:44:07.700Z,1000
2017-10-20T09:45:18.102Z,1000.02
2017-10-20T09:46:28.517Z,1000
2017-10-20T09:47:38.914Z,999.98
2017-10-20T09:48:49.072Z,1000
2017-10-20T09:49:59.616Z,999.99
2017-10-20T09:51:09.699Z,999.94
2017-10-20T09:52:19.836Z,999.96
2017-10-20T09:53:30.242Z,999.91
2017-10-20T09:54:40.643Z,999.93
2017-10-20T09:55:51.046Z,999.93
2017-10-20T09:57:01.466Z,999.88
2017-10-20T09:58:11.924Z,999.91
2017-10-20T09:59:22.341Z,999.85
2017-10-20T10:00:32.753Z,999.82
2017-10-20T10:01:43.163Z,999.82
2017-10-20T10:02:53.241Z,999.82
2017-10-20T10:04:03.000Z,999.83
2017-10-20T10:05:13.417Z,999.83
2017-10-20T10:06:23.860Z,999.8
2017-10-20T10:07:34.837Z,999.84
2017-10-20T10:08:45.266Z,999.86
2017-10-20T10:09:55.391Z,999.87
2017-10-20T10:11:05.855Z,999.84
2017-10-20T10:12:16.269Z,999.8
2017-10-20T10:13:26.690Z,999.8
2017-10-20T10:14:37.527Z,999.79
2017-10-20T10:15:48.088Z,999.77
2017-10-20T10:16:58.574Z,999.74
2017-10-20T10:18:09.093Z,999.76
2017-10-20T10:19:19.518Z,999.77
2017-10-20T10:20:29.929Z,999.76
2017-10-20T10:21:40.349Z,999.74
2017-10-20T10:22:50.763Z,999.73
2017-10-20T10:24:00.532Z,999.73
2017-10-20T10:25:10.950Z,999.68
2017-10-20T10:26:21.389Z,999.72
2017-10-20T10:27:31.851Z,999.65
2017-10-20T10:28:42.257Z,999.66
2017-10-20T10:29:52.684Z,999.65
2017-10-20T10:31:03.097Z,999.62
2017-10-20T10:32:13.531Z,999.64
2017-10-20T10:33:24.029Z,999.62
2017-10-20T10:34:34.452Z,999.62
2017-10-20T10:35:45.890Z,999.62
2017-10-20T10:36:56.312Z,999.65
2017-10-20T10:38:06.742Z,999.67
2017-10-20T10:39:16.865Z,999.69
2017-10-20T10:40:27.293Z,999.7
2017-10-20T10:41:37.717Z,999.7
2017-10-20T10:42:47.804Z,999.79
2017-10-20T10:43:57.895Z,999.76
2017-10-20T10:45:08.372Z,999.8
2017-10-20T10:46:18.790Z,999.76
2017-10-20T10:47:28.228Z,999.74
2017-10-20T10:48:38.646Z,999.7
2017-10-20T10:49:48.752Z,999.7
2017-10-20T10:50:58.849Z,999.71
2017-10-20T10:52:09.276Z,999.69
2017-10-20T10:53:19.707Z,999.64
2017-10-20T10:54:30.135Z,999.62
2017-10-20T10:55:40.592Z,999.63
2017-10-20T10:56:50.988Z,999.63
2017-10-20T10:58:01.786Z,999.61
2017-10-20T10:59:11.525Z,999.66
2017-10-20T11:00:21.947Z,999.67
2017-10-20T11:01:32.384Z,999.68
2017-10-20T11:02:42.790Z,999.65
2017-10-20T11:03:52.875Z,999.64
2017-10-20T11:05:03.294Z,999.62
2017-10-20T11:06:13.059Z,999.67
2017-10-20T11:07:23.467Z,999.64
2017-10-20T11:08:33.873Z,999.65
2017-10-20T11:09:44.307Z,999.65
2017-10-20T11:10:54.384Z,999.67
2017-10-20T11:12:04.471Z,999.64
2017-10-20T11:13:14.566Z,999.66
2017-10-20T11:14:25.035Z,999.67
2017-10-20T11:15:35.136Z,999.64
2017-10-20T11:16:45.535Z,999.64
2017-10-20T11:17:55.947Z,999.64
2017-10-20T11:19:06.030Z,999.61
2017-10-20T11:20:16.166Z,999.66
2017-10-20T11:21:26.238Z,999.64
2017-10-20T11:22:36.325Z,999.58
2017-10-20T11:23:46.741Z,999.59
2017-10-20T11:24:57.163Z,999.55
2017-10-20T11:26:07.585Z,999.55
2017-10-20T11:27:18.010Z,999.48
2017-10-20T11:28:28.434Z,999.43
2017-10-20T11:29:38.884Z,999.44
2017-10-20T11:30:48.972Z,999.42
2017-10-20T11:31:59.388Z,999.4
2017-10-20T11:33:09.813Z,999.39
2017-10-20T11:34:20.244Z,999.36
2017-10-20T11:35:30.671Z,999.38
2017-10-20T11:36:41.102Z,999.43
2017-10-20T11:37:51.565Z,999.4
2017-10-20T11:39:01.993Z,999.39
2017-10-20T11:40:12.407Z,999.47
2017-10-20T11:41:22.501Z,999.51
2017-10-20T11:42:32.590Z,999.53
2017-10-20T11:43:42.984Z,999.55
2017-10-20T11:44:53.408Z,999.51
2017-10-20T11:46:03.877Z,999.53
2017-10-20T11:47:14.322Z,999.49
2017-10-20T11:48:24.761Z,999.5
2017-10-20T11:49:35.184Z,999.53
2017-10-20T11:50:45.659Z,999.52
2017-10-20T11:51:56.098Z,999.57
2017-10-20T11:53:06.540Z,999.61
2017-10-20T11:54:16.963Z,999.64
2017-10-20T11:55:27.384Z,999.68
2017-10-20T11:56:37.179Z,999.68
2017-10-20T11:57:47.279Z,999.62
2017-10-20T11:58:57.349Z,999.65
2017-10-20T12:00:07.779Z,999.65
2017-10-20T12:01:18.219Z,999.63
2017-10-20T12:02:28.613Z,999.64
2017-10-20T12:03:39.062Z,999.6
2017-10-20T12:04:49.509Z,999.63
2017-10-20T12:05:59.931Z,999.63
2017-10-20T12:07:10.362Z,999.63
2017-10-20T12:08:20.776Z,999.65
2017-10-20T12:09:30.871Z,999.65
2017-10-20T12:10:41.294Z,999.64
2017-10-20T12:11:51.400Z,999.67
2017-10-20T12:13:01.814Z,999.64
2017-10-20T12:14:12.227Z,999.66
2017-10-20T12:15:22.654Z,999.63
2017-10-20T12:16:32.732Z,999.61
2017-10-20T12:17:43.146Z,999.58
2017-10-20T12:18:53.627Z,999.55
2017-10-20T12:20:04.954Z,999.57
2017-10-20T12:21:15.366Z,999.56
2017-10-20T12:22:25.779Z,999.5
2017-10-20T12:23:36.202Z,999.53
2017-10-20T12:24:46.634Z,999.49
2017-10-20T12:25:56.741Z,999.53
2017-10-20T12:27:07.175Z,999.51
2017-10-20T12:28:17.605Z,999.53
2017-10-20T12:29:27.673Z,999.55
2017-10-20T12:30:37.801Z,999.55
2017-10-20T12:31:48.242Z,999.56
2017-10-20T12:32:58.671Z,999.57
2017-10-20T12:34:09.073Z,999.57
2017-10-20T12:35:19.160Z,999.61
2017-10-20T12:36:29.647Z,999.63
2017-10-20T12:37:40.076Z,999.59
2017-10-20T12:38:50.506Z,999.63
2017-10-20T12:40:00.940Z,999.6
2017-10-20T12:41:11.367Z,999.6
2017-10-20T12:42:21.796Z,999.61
2017-10-20T12:43:32.223Z,999.62
2017-10-20T12:44:42.316Z,999.59
2017-10-20T12:45:52.733Z,999.6
2017-10-20T12:47:02.818Z,999.58
2017-10-20T12:48:13.241Z,999.56
2017-10-20T12:49:23.643Z,999.57
2017-10-20T12:50:34.079Z,999.53
2017-10-20T12:51:44.491Z,999.58
2017-10-20T12:52:54.924Z,999.53
2017-10-20T12:54:05.087Z,999.58
2017-10-20T12:55:15.501Z,999.55
2017-10-20T12:56:25.915Z,999.59
2017-10-20T12:57:36.326Z,999.57
2017-10-20T12:58:46.736Z,999.57
2017-10-20T12:59:57.149Z,999.58
2017-10-20T13:01:07.571Z,999.59
2017-10-20T13:02:17.998Z,999.57
2017-10-20T13:03:28.427Z,999.54
2017-10-20T13:04:38.495Z,999.56
2017-10-20T13:05:48.580Z,999.54
2017-10-20T13:06:58.001Z,999.56
2017-10-20T13:08:08.473Z,999.57
2017-10-20T13:09:18.921Z,999.62
2017-10-20T13:10:29.370Z,999.64
2017-10-20T13:11:39.791Z,999.62
2017-10-20T13:12:50.277Z,999.62
2017-10-20T13:14:00.685Z,999.61
2017-10-20T13:15:11.096Z,999.6
2017-10-20T13:16:21.552Z,999.61
2017-10-20T13:17:31.976Z,999.64
2017-10-20T13:18:42.142Z,999.6
2017-10-20T13:19:52.589Z,999.61
2017-10-20T13:21:02.687Z,999.58
2017-10-20T13:22:13.135Z,999.59
2017-10-20T13:23:23.572Z,999.53
2017-10-20T13:24:34.080Z,999.51
2017-10-20T13:25:44.502Z,999.43
2017-10-20T13:26:54.946Z,999.46
2017-10-20T13:28:05.368Z,999.46
2017-10-20T13:29:15.787Z,999.47
2017-10-20T13:30:26.267Z,999.47
2017-10-20T13:31:36.358Z,999.47
2017-10-20T13:32:46.464Z,999.45
2017-10-20T13:33:56.898Z,999.46
2017-10-20T13:35:06.992Z,999.45
2017-10-20T13:36:17.467Z,999.48
2017-10-20T13:37:27.903Z,999.45
2017-10-20T13:38:37.970Z,999.44
2017-10-20T13:39:48.378Z,999.41
2017-10-20T13:40:58.820Z,999.33
2017-10-20T13:42:08.575Z,999.4
2017-10-20T13:43:19.049Z,999.41
2017-10-20T13:44:29.126Z,999.42
2017-10-20T13:45:38.897Z,999.38
2017-10-20T13:46:48.980Z,999.39
2017-10-20T13:47:59.444Z,999.32
2017-10-20T13:49:09.544Z,999.31
2017-10-20T13:50:19.974Z,999.3
2017-10-20T13:51:30.075Z,999.29
2017-10-20T13:52:40.484Z,999.28
2017-10-20T13:53:50.930Z,999.35
2017-10-20T13:55:00.681Z,999.39
2017-10-20T13:56:10.773Z,999.42
2017-10-20T13:57:20.531Z,999.41
2017-10-20T13:58:30.964Z,999.43
2017-10-20T13:59:41.423Z,999.43
2017-10-20T14:00:51.847Z,999.42
2017-10-20T14:02:02.287Z,999.38
2017-10-20T14:03:12.700Z,999.39
2017-10-20T14:04:22.453Z,999.4
2017-10-20T14:05:32.260Z,999.4
2017-10-20T14:06:42.703Z,999.41
2017-10-20T14:07:53.112Z,999.42
2017-10-20T14:09:03.566Z,999.43
2017-10-20T14:10:13.362Z,999.45
2017-10-20T14:11:23.801Z,999.43
2017-10-20T14:12:34.210Z,999.38
2017-10-20T14:13:44.640Z,999.42
2017-10-20T14:14:55.078Z,999.38
2017-10-20T14:16:05.501Z,999.4
2017-10-20T14:17:16.009Z,999.42
2017-10-20T14:18:26.117Z,999.39
2017-10-20T14:19:36.520Z,999.29
2017-10-20T14:20:46.947Z,999.27
2017-10-20T14:21:57.362Z,999.32
2017-10-20T14:23:07.842Z,999.31
2017-10-20T14:24:18.280Z,999.34
2017-10-20T14:25:28.715Z,999.33
2017-10-20T14:26:39.144Z,999.34
2017-10-20T14:27:49.579Z,999.31
2017-10-20T14:28:59.743Z,999.29
2017-10-20T14:30:10.165Z,999.32
2017-10-20T14:31:20.603Z,999.35
2017-10-20T14:32:31.039Z,999.32
2017-10-20T14:33:41.114Z,999.3
2017-10-20T14:34:51.571Z,999.26
2017-10-20T14:36:01.689Z,999.28
2017-10-20T14:37:12.213Z,999.3
2017-10-20T14:38:22.630Z,999.32
2017-10-20T14:39:32.726Z,999.37
2017-10-20T14:40:42.866Z,999.37
2017-10-20T14:41:53.263Z,999.36
2017-10-20T14:43:03.690Z,999.36
2017-10-20T14:44:14.193Z,999.33
2017-10-20T14:45:24.609Z,999.35
2017-10-20T14:46:35.020Z,999.39
2017-10-20T14:47:45.104Z,999.32
2017-10-20T14:48:55.534Z,999.34
2017-10-20T14:50:05.966Z,999.32
2017-10-20T14:51:16.412Z,999.33
2017-10-20T14:52:26.512Z,999.35
2017-10-20T14:53:36.928Z,999.35
2017-10-20T14:54:47.029Z,999.35
2017-10-20T14:55:57.468Z,999.34
2017-10-20T14:57:07.872Z,999.37
2017-10-20T14:58:18.393Z,999.4
2017-10-20T14:59:28.796Z,999.4
2017-10-20T15:00:38.887Z,999.36
2017-10-20T15:01:48.968Z,999.37
2017-10-20T15:02:58.765Z,999.37
2017-10-20T15:04:08.574Z,999.38
2017-10-20T15:05:18.674Z,999.4
2017-10-20T15:06:29.090Z,999.35
2017-10-20T15:07:39.172Z,999.38
2017-10-20T15:08:49.579Z,999.39
2017-10-20T15:09:59.971Z,999.4